createdAt,value
2022-10-08T00:01:16.565Z,13.80
2022-10-08T00:04:18.187Z,13.80
2022-10-08T00:07:19.791Z,13.80
2022-10-08T00:10:21.356Z,13.90
2022-10-08T00:13:24.836Z,13.90
2022-10-08T00:16:32.084Z,13.90
2022-10-08T00:19:33.696Z,13.90
2022-10-08T00:22:35.444Z,13.70
2022-10-08T00:25:42.439Z,13.80
2022-10-08T00:28:46.234Z,13.80
2022-10-08T00:31:49.712Z,13.80
2022-10-08T00:34:51.343Z,13.90
2022-10-08T00:37:52.912Z,13.90
2022-10-08T00:40:54.712Z,13.90
2022-10-08T00:43:59.454Z,13.90
2022-10-08T00:47:01.202Z,13.90
2022-10-08T00:50:14.622Z,13.90
2022-10-08T00:53:16.255Z,13.90
2022-10-08T00:56:18.303Z,13.80
2022-10-08T00:59:21.015Z,13.90
2022-10-08T01:02:22.674Z,13.90
2022-10-08T01:05:58.956Z,13.90
2022-10-08T01:09:18.686Z,13.90
2022-10-08T01:12:32.392Z,13.80
2022-10-08T01:15:41.071Z,13.60
2022-10-08T01:19:13.219Z,13.60
2022-10-08T01:22:37.318Z,13.60
2022-10-08T01:26:06.041Z,13.60
2022-10-08T01:29:16.064Z,13.60
2022-10-08T01:32:22.042Z,13.50
2022-10-08T01:35:29.810Z,13.50
2022-10-08T01:38:34.229Z,13.50
2022-10-08T01:41:36.118Z,13.60
2022-10-08T01:44:48.775Z,13.60
2022-10-08T01:47:51.456Z,13.60
2022-10-08T01:50:55.738Z,13.60
2022-10-08T01:53:57.371Z,13.60
2022-10-08T01:57:01.376Z,13.60
2022-10-08T02:00:12.299Z,13.70
2022-10-08T02:03:13.918Z,13.60
2022-10-08T02:06:15.563Z,13.60
2022-10-08T02:09:17.862Z,13.50
2022-10-08T02:12:22.931Z,13.40
2022-10-08T02:15:42.961Z,13.30
2022-10-08T02:19:10.703Z,13.20
2022-10-08T02:22:18.718Z,13.10
2022-10-08T02:25:34.272Z,13.10
2022-10-08T02:28:45.219Z,13.10
2022-10-08T02:31:51.995Z,13.10
2022-10-08T02:35:14.017Z,13.00
2022-10-08T02:38:25.083Z,12.90
2022-10-08T02:41:34.370Z,13.00
2022-10-08T02:44:42.205Z,13.00
2022-10-08T02:47:47.022Z,12.90
2022-10-08T02:50:51.324Z,12.90
2022-10-08T02:53:53.393Z,12.90
2022-10-08T02:56:58.578Z,12.80
2022-10-08T03:00:00.273Z,12.80
2022-10-08T03:03:42.400Z,12.70
2022-10-08T03:06:44.600Z,12.70
2022-10-08T03:09:49.774Z,12.70
2022-10-08T03:12:53.152Z,12.70
2022-10-08T03:15:55.818Z,12.70
2022-10-08T03:18:59.116Z,12.60
2022-10-08T03:22:02.113Z,12.60
2022-10-08T03:25:03.974Z,12.60
2022-10-08T03:28:06.418Z,12.50
2022-10-08T03:31:08.101Z,12.50
2022-10-08T03:34:10.047Z,12.40
2022-10-08T03:37:11.608Z,12.30
2022-10-08T03:40:13.235Z,12.20
2022-10-08T03:43:17.513Z,12.10
2022-10-08T03:46:19.212Z,12.10
2022-10-08T03:49:20.863Z,11.90
2022-10-08T03:52:22.426Z,11.90
2022-10-08T03:55:24.066Z,11.80
2022-10-08T03:58:25.595Z,11.70
2022-10-08T04:01:28.865Z,11.60
2022-10-08T04:04:30.508Z,11.60
2022-10-08T04:07:32.089Z,11.50
2022-10-08T04:10:38.518Z,11.40
2022-10-08T04:13:42.476Z,11.40
2022-10-08T04:16:44.002Z,11.40
2022-10-08T04:19:45.665Z,11.30
2022-10-08T04:22:48.999Z,11.20
2022-10-08T04:25:52.177Z,11.20
2022-10-08T04:28:54.522Z,11.10
2022-10-08T04:31:56.204Z,11.00
2022-10-08T04:34:57.777Z,11.10
2022-10-08T04:37:59.342Z,11.00
2022-10-08T04:41:06.543Z,11.00
2022-10-08T04:44:08.083Z,10.90
2022-10-08T04:47:09.664Z,10.90
2022-10-08T04:50:11.505Z,10.90
2022-10-08T04:53:13.083Z,10.80
2022-10-08T04:56:17.849Z,10.70
2022-10-08T04:59:19.470Z,10.70
2022-10-08T05:02:21.099Z,10.60
2022-10-08T05:05:23.840Z,10.60
2022-10-08T05:08:25.378Z,10.50
2022-10-08T05:11:27.453Z,10.50
2022-10-08T05:14:28.995Z,10.50
2022-10-08T05:17:30.614Z,10.40
2022-10-08T05:20:32.188Z,10.30
2022-10-08T05:23:34.623Z,10.30
2022-10-08T05:26:57.406Z,10.30
2022-10-08T05:30:00.149Z,10.30
2022-10-08T05:33:01.763Z,10.20
2022-10-08T05:36:05.731Z,10.20
2022-10-08T05:39:07.937Z,10.20
2022-10-08T05:42:09.560Z,10.10
2022-10-08T05:45:11.999Z,10.10
2022-10-08T05:48:13.724Z,10.10
2022-10-08T05:51:17.087Z,10.10
2022-10-08T05:54:19.255Z,10.10
2022-10-08T05:57:20.839Z,10.10
2022-10-08T06:00:22.457Z,10.10
2022-10-08T06:03:24.128Z,10.10
2022-10-08T06:06:25.927Z,10.10
2022-10-08T06:09:27.569Z,10.10
2022-10-08T06:12:29.146Z,10.20
2022-10-08T06:15:30.709Z,10.20
2022-10-08T06:18:35.350Z,10.20
2022-10-08T06:21:37.655Z,10.20
2022-10-08T06:24:39.251Z,10.30
2022-10-08T06:27:40.846Z,10.30
2022-10-08T06:30:43.177Z,10.40
2022-10-08T06:33:45.130Z,10.50
2022-10-08T06:36:46.810Z,10.50
2022-10-08T06:39:48.679Z,10.50
2022-10-08T06:42:51.045Z,10.60
2022-10-08T06:45:53.307Z,10.60
2022-10-08T06:48:54.943Z,10.60
2022-10-08T06:51:56.541Z,10.70
2022-10-08T06:54:58.114Z,10.80
2022-10-08T06:57:59.998Z,10.90
2022-10-08T07:01:10.756Z,11.00
2022-10-08T07:04:12.380Z,11.10
2022-10-08T07:07:14.012Z,11.20
2022-10-08T07:10:18.499Z,11.20
2022-10-08T07:13:21.663Z,11.30
2022-10-08T07:16:26.208Z,11.30
2022-10-08T07:19:27.842Z,11.50
2022-10-08T07:22:29.457Z,11.60
2022-10-08T07:25:31.145Z,11.70
2022-10-08T07:28:36.396Z,11.90
2022-10-08T07:31:39.285Z,12.00
2022-10-08T07:34:40.902Z,12.10
2022-10-08T07:37:43.097Z,12.10
2022-10-08T07:40:46.632Z,12.30
2022-10-08T07:43:53.651Z,12.40
2022-10-08T07:46:55.308Z,12.50
2022-10-08T07:49:56.906Z,12.60
2022-10-08T07:52:58.499Z,12.70
2022-10-08T07:56:00.123Z,12.90
2022-10-08T07:59:03.619Z,12.90
2022-10-08T08:02:05.231Z,13.10
2022-10-08T08:05:07.380Z,13.10
2022-10-08T08:08:09.448Z,13.10
2022-10-08T08:11:16.373Z,13.10
2022-10-08T08:14:19.636Z,13.20
2022-10-08T08:17:21.296Z,13.30
2022-10-08T08:20:22.928Z,13.50
2022-10-08T08:23:27.982Z,13.60
2022-10-08T08:26:34.476Z,13.90
2022-10-08T08:29:36.083Z,14.00
2022-10-08T08:32:37.643Z,14.20
2022-10-08T08:35:39.189Z,14.30
2022-10-08T08:38:40.820Z,14.40
2022-10-08T08:42:12.827Z,14.60
2022-10-08T08:45:44.849Z,14.90
2022-10-08T08:48:45.968Z,15.20
2022-10-08T08:51:47.697Z,15.60
2022-10-08T08:54:50.803Z,16.00
2022-10-08T08:57:57.233Z,16.10
2022-10-08T09:01:10.187Z,16.10
2022-10-08T09:04:17.250Z,16.00
2022-10-08T09:07:24.884Z,15.90
2022-10-08T09:10:44.964Z,15.90
2022-10-08T09:14:12.475Z,16.00
2022-10-08T09:17:17.216Z,15.90
2022-10-08T09:20:23.509Z,15.90
2022-10-08T09:23:26.805Z,15.70
2022-10-08T09:26:35.446Z,15.70
2022-10-08T09:29:37.489Z,15.80
2022-10-08T09:32:39.293Z,15.80
2022-10-08T09:35:44.976Z,16.00
2022-10-08T09:38:46.580Z,16.00
2022-10-08T09:42:06.573Z,16.10
2022-10-08T09:45:44.827Z,16.20
2022-10-08T09:48:46.581Z,16.10
2022-10-08T09:51:49.850Z,16.00
2022-10-08T09:55:16.369Z,16.10
2022-10-08T09:58:19.310Z,16.10
2022-10-08T10:01:21.156Z,16.20
2022-10-08T10:04:36.307Z,16.20
2022-10-08T10:07:41.960Z,16.10
2022-10-08T10:10:45.510Z,16.10
2022-10-08T10:13:50.069Z,16.10
2022-10-08T10:17:10.010Z,16.20
2022-10-08T10:20:37.082Z,16.20
2022-10-08T10:23:49.855Z,16.20
2022-10-08T10:26:53.621Z,16.20
2022-10-08T10:30:05.039Z,16.20
2022-10-08T10:33:19.552Z,16.40
2022-10-08T10:36:22.299Z,16.50
2022-10-08T10:39:30.003Z,16.50
2022-10-08T10:42:49.962Z,16.60
2022-10-08T10:46:00.423Z,16.60
2022-10-08T10:49:02.650Z,16.40
2022-10-08T10:52:19.018Z,16.50
2022-10-08T10:55:54.721Z,16.70
2022-10-08T10:59:21.165Z,16.80
2022-10-08T11:02:48.043Z,17.20
2022-10-08T11:06:04.332Z,17.20
2022-10-08T11:09:29.309Z,17.40
2022-10-08T11:13:07.639Z,17.50
2022-10-08T11:16:18.109Z,17.50
2022-10-08T11:19:39.838Z,17.60
2022-10-08T11:23:21.388Z,17.70
2022-10-08T11:26:46.589Z,17.70
2022-10-08T11:29:56.623Z,17.60
2022-10-08T11:32:58.590Z,17.80
2022-10-08T11:36:21.331Z,18.00
2022-10-08T11:39:55.440Z,17.90
2022-10-08T11:43:17.194Z,17.70
2022-10-08T11:46:31.262Z,17.80
2022-10-08T11:49:32.988Z,18.00
2022-10-08T11:52:35.194Z,18.00
2022-10-08T11:55:37.760Z,17.90
2022-10-08T11:58:39.335Z,17.60
2022-10-08T12:01:53.396Z,17.70
2022-10-08T12:04:58.279Z,18.00
2022-10-08T12:08:03.792Z,18.20
2022-10-08T12:11:35.252Z,18.20
2022-10-08T12:14:45.395Z,18.20
2022-10-08T12:17:54.157Z,18.10
2022-10-08T12:21:17.676Z,17.90
2022-10-08T12:24:53.020Z,17.60
2022-10-08T12:28:20.216Z,17.50
2022-10-08T12:31:28.837Z,17.40
2022-10-08T12:34:30.440Z,17.40
2022-10-08T12:37:49.112Z,17.60
2022-10-08T12:41:15.034Z,17.90
2022-10-08T12:44:48.868Z,18.10
2022-10-08T12:48:04.540Z,18.00
2022-10-08T12:51:31.964Z,18.30
2022-10-08T12:54:34.280Z,18.40
2022-10-08T12:57:40.288Z,18.60
2022-10-08T13:00:44.589Z,18.80
2022-10-08T13:03:46.566Z,19.00
2022-10-08T13:06:49.834Z,19.20
2022-10-08T13:09:55.441Z,19.20
2022-10-08T13:13:00.833Z,19.10
2022-10-08T13:16:04.974Z,18.60
2022-10-08T13:19:18.026Z,18.10
2022-10-08T13:22:26.470Z,17.80
2022-10-08T13:25:34.132Z,17.40
2022-10-08T13:28:59.046Z,17.30
2022-10-08T13:32:12.313Z,17.40
2022-10-08T13:35:23.142Z,17.80
2022-10-08T13:38:30.679Z,18.30
2022-10-08T13:41:32.293Z,18.50
2022-10-08T13:44:34.873Z,18.70
2022-10-08T13:47:36.463Z,18.70
2022-10-08T13:50:45.510Z,18.50
2022-10-08T13:53:47.155Z,18.10
2022-10-08T13:56:49.325Z,18.10
2022-10-08T13:59:50.991Z,18.10
2022-10-08T14:02:53.240Z,18.10
2022-10-08T14:05:54.832Z,18.20
2022-10-08T14:08:57.371Z,18.30
2022-10-08T14:12:01.283Z,18.30
2022-10-08T14:15:03.251Z,18.40
2022-10-08T14:18:04.933Z,18.40
2022-10-08T14:21:06.673Z,18.30
2022-10-08T14:24:08.430Z,18.20
2022-10-08T14:27:10.133Z,18.20
2022-10-08T14:30:12.847Z,18.10
2022-10-08T14:33:14.548Z,18.20
2022-10-08T14:36:19.638Z,18.10
2022-10-08T14:39:25.823Z,18.00
2022-10-08T14:42:27.569Z,18.00
2022-10-08T14:45:30.028Z,18.10
2022-10-08T14:48:31.664Z,18.10
2022-10-08T14:51:38.457Z,18.20
2022-10-08T14:54:40.028Z,18.20
2022-10-08T14:57:41.763Z,18.20
2022-10-08T15:00:43.935Z,18.10
2022-10-08T15:03:45.865Z,18.20
2022-10-08T15:06:47.590Z,18.20
2022-10-08T15:09:49.382Z,18.30
2022-10-08T15:12:51.298Z,18.40
2022-10-08T15:15:53.265Z,18.60
2022-10-08T15:18:54.894Z,18.50
2022-10-08T15:21:56.446Z,18.50
2022-10-08T15:24:58.018Z,18.40
2022-10-08T15:27:59.742Z,18.40
2022-10-08T15:31:06.266Z,18.40
2022-10-08T15:34:13.634Z,18.20
2022-10-08T15:37:15.292Z,18.20
2022-10-08T15:40:17.010Z,18.20
2022-10-08T15:43:18.924Z,18.10
2022-10-08T15:46:22.743Z,18.00
2022-10-08T15:49:30.419Z,18.00
2022-10-08T15:52:33.190Z,17.80
2022-10-08T15:55:34.764Z,17.60
2022-10-08T15:58:50.454Z,17.60
2022-10-08T16:01:52.666Z,17.60
2022-10-08T16:04:54.356Z,17.40
2022-10-08T16:07:56.302Z,17.30
2022-10-08T16:10:58.355Z,17.20
2022-10-08T16:14:10.199Z,17.10
2022-10-08T16:17:11.846Z,16.90
2022-10-08T16:20:13.505Z,16.80
2022-10-08T16:23:15.455Z,16.70
2022-10-08T16:26:20.777Z,16.60
2022-10-08T16:29:22.383Z,16.40
2022-10-08T16:32:24.050Z,16.30
2022-10-08T16:35:25.693Z,16.10
2022-10-08T16:38:27.650Z,16.00
2022-10-08T16:41:32.003Z,15.80
2022-10-08T16:44:33.605Z,15.70
2022-10-08T16:47:35.401Z,15.70
2022-10-08T16:50:44.017Z,15.60
2022-10-08T16:53:53.876Z,15.50
2022-10-08T16:56:56.537Z,15.40
2022-10-08T16:59:59.995Z,15.30
2022-10-08T17:03:01.787Z,15.20
2022-10-08T17:06:04.046Z,15.00
2022-10-08T17:09:05.993Z,14.80
2022-10-08T17:12:07.641Z,14.60
2022-10-08T17:15:09.884Z,14.50
2022-10-08T17:18:12.106Z,14.40
2022-10-08T17:21:14.645Z,14.30
2022-10-08T17:24:16.327Z,14.20
2022-10-08T17:27:17.928Z,14.10
2022-10-08T17:30:19.646Z,14.00
2022-10-08T17:33:21.206Z,13.90
2022-10-08T17:36:26.248Z,13.80
2022-10-08T17:39:27.826Z,13.70
2022-10-08T17:42:29.474Z,13.70
2022-10-08T17:45:31.155Z,13.60
2022-10-08T17:48:32.814Z,13.50
2022-10-08T17:51:34.807Z,13.30
2022-10-08T17:54:36.403Z,13.20
2022-10-08T17:57:38.003Z,13.00
2022-10-08T18:00:39.587Z,12.90
2022-10-08T18:03:42.846Z,12.80
2022-10-08T18:06:48.879Z,12.80
2022-10-08T18:09:50.583Z,12.70
2022-10-08T18:12:52.135Z,12.60
2022-10-08T18:15:53.768Z,12.60
2022-10-08T18:18:55.550Z,12.50
2022-10-08T18:21:57.147Z,12.40
2022-10-08T18:24:58.830Z,12.40
2022-10-08T18:28:00.451Z,12.30
2022-10-08T18:31:12.896Z,12.30
2022-10-08T18:34:16.758Z,12.30
2022-10-08T18:37:18.593Z,12.20
2022-10-08T18:40:20.270Z,12.20
2022-10-08T18:43:21.829Z,12.20
2022-10-08T18:46:23.501Z,12.20
2022-10-08T18:49:30.147Z,12.20
2022-10-08T18:52:33.136Z,12.10
2022-10-08T18:55:34.710Z,12.00
2022-10-08T18:58:37.431Z,12.00
2022-10-08T19:01:42.164Z,11.90
2022-10-08T19:04:43.855Z,11.90
2022-10-08T19:07:45.473Z,11.80
2022-10-08T19:10:47.146Z,11.80
2022-10-08T19:13:49.417Z,11.70
2022-10-08T19:16:51.500Z,11.60
2022-10-08T19:19:53.070Z,11.60
2022-10-08T19:22:54.726Z,11.50
2022-10-08T19:25:57.262Z,11.40
2022-10-08T19:28:59.390Z,11.40
2022-10-08T19:32:00.937Z,11.40
2022-10-08T19:35:02.773Z,11.30
2022-10-08T19:38:04.373Z,11.20
2022-10-08T19:41:09.900Z,11.20
2022-10-08T19:44:11.862Z,11.10
2022-10-08T19:47:14.161Z,11.00
2022-10-08T19:50:16.033Z,11.10
2022-10-08T19:53:17.806Z,11.00
2022-10-08T19:56:20.405Z,10.90
2022-10-08T19:59:22.070Z,10.80
2022-10-08T20:02:36.774Z,10.70
2022-10-08T20:05:50.264Z,10.60
2022-10-08T20:08:57.873Z,10.50
2022-10-08T20:11:59.463Z,10.50
2022-10-08T20:15:01.066Z,10.40
2022-10-08T20:18:03.286Z,10.30
2022-10-08T20:21:08.223Z,10.30
2022-10-08T20:24:17.077Z,10.20
2022-10-08T20:27:23.252Z,10.10
2022-10-08T20:30:24.815Z,10.10
2022-10-08T20:33:26.379Z,10.00
2022-10-08T20:36:28.615Z,10.00
2022-10-08T20:39:30.658Z,10.00
2022-10-08T20:42:32.290Z,9.90
2022-10-08T20:45:35.183Z,9.80
2022-10-08T20:48:37.989Z,9.80
2022-10-08T20:51:41.514Z,9.70
2022-10-08T20:54:43.817Z,9.60
2022-10-08T20:57:45.357Z,9.60
2022-10-08T21:00:47.142Z,9.50
2022-10-08T21:03:49.460Z,9.40
2022-10-08T21:06:51.441Z,9.40
2022-10-08T21:09:53.025Z,9.20
2022-10-08T21:12:54.590Z,9.10
2022-10-08T21:16:20.979Z,9.00
2022-10-08T21:19:23.051Z,8.90
2022-10-08T21:22:24.704Z,8.80
2022-10-08T21:25:26.234Z,8.80
2022-10-08T21:28:27.822Z,8.70
2022-10-08T21:31:31.591Z,8.60
2022-10-08T21:34:33.221Z,8.60
2022-10-08T21:37:34.783Z,8.60
2022-10-08T21:40:37.392Z,8.60
2022-10-08T21:43:40.987Z,8.60
2022-10-08T21:46:43.584Z,8.60
2022-10-08T21:49:45.140Z,8.60
2022-10-08T21:52:46.916Z,8.60
2022-10-08T21:56:03.518Z,8.50
2022-10-08T21:59:07.897Z,8.50
2022-10-08T22:02:09.506Z,8.40
2022-10-08T22:05:11.177Z,8.40
2022-10-08T22:08:12.745Z,8.40
2022-10-08T22:11:14.990Z,8.20
2022-10-08T22:14:18.052Z,8.20
2022-10-08T22:17:19.623Z,8.20
2022-10-08T22:20:21.323Z,8.10
2022-10-08T22:23:23.434Z,8.10
2022-10-08T22:26:32.085Z,8.10
2022-10-08T22:29:34.320Z,8.10
2022-10-08T22:32:35.909Z,8.00
2022-10-08T22:35:37.500Z,7.90
2022-10-08T22:38:40.492Z,7.90
2022-10-08T22:41:42.088Z,7.90
2022-10-08T22:44:43.789Z,7.80
2022-10-08T22:47:46.262Z,7.80
2022-10-08T22:50:47.901Z,7.80
2022-10-08T22:53:49.568Z,7.70
2022-10-08T22:56:51.111Z,7.70
2022-10-08T22:59:52.736Z,7.70
2022-10-08T23:02:54.287Z,7.70
2022-10-08T23:06:10.568Z,7.70
2022-10-08T23:09:12.637Z,7.70
2022-10-08T23:12:14.202Z,7.70
2022-10-08T23:15:15.834Z,7.70
2022-10-08T23:18:17.438Z,7.70
2022-10-08T23:21:19.016Z,7.70
2022-10-08T23:24:20.677Z,7.70
2022-10-08T23:27:22.239Z,7.60
2022-10-08T23:30:42.132Z,7.60
2022-10-08T23:33:47.679Z,7.50
2022-10-08T23:36:49.387Z,7.40
2022-10-08T23:39:54.411Z,7.40
2022-10-08T23:42:59.279Z,7.40
2022-10-08T23:46:01.035Z,7.30
2022-10-08T23:49:02.774Z,7.30
2022-10-08T23:52:04.400Z,7.20
2022-10-08T23:55:06.242Z,7.20
2022-10-08T23:58:07.770Z,7.00
